Castlewood, South Dakota
Current Conditions -  °F | °C
As of 10:26 AM on Sunday 25 Jan 2015 (Local Time) from KATY Reporting Station
Overcast Overcast  
Wind Chill: 21°   Ceiling: 7000
Heat Index: 28°   Visibility: 10mi
Dew Point: 24°   Wind: 7mph
Humidity: 85%   Direction: 340°NNW
Pressure: 29.98"   Gusts: NA
Location:  44.72°N, 97.03°W
Report Text: KATY 251626Z AUTO 34006KT 10SM FEW009 OVC070 M02/M04 A2998 RMK AO2 T10221044
Loading
Personal Weather Stations






























Interactive Weather Map New forecast layout! Learn more

10-Day Weather Forecast

Advertisements
Track Severe Weather on mobile